PAS89 WSSS-WIII
Flight info
| Callsign | PAS89 |
|---|---|
| Flight time | 1h 18m |
| Altitude | 37000 |
| Route | ANITO8B ANITO B470 BUNIK |
| Aircraft | A320/M-SDE1E2E3FGHIRWY/LB1 |
Departure
| Time | 2026-05-07 04:43 |
|---|---|
| Airport | Singapore Changi Airport (WSSS) |
Arrival
| Time | 2026-05-07 06:01 |
|---|---|
| Airport | Soekarno-Hatta International Airport (WIII) |
| Time | Latitude | Longitude | Altitude | Speed | Heading |
|---|---|---|---|---|---|
| 2026-05-07 04:27 | 1.36365 | 103.99409 | 24 ft | 0 kts | 323° |
| 2026-05-07 04:33 | 1.36364 | 103.99409 | 24 ft | 1 kts | 323° |
| 2026-05-07 04:33 | 1.36345 | 103.99423 | 24 ft | 4 kts | 326° |
| 2026-05-07 04:34 | 1.36322 | 103.99437 | 25 ft | 4 kts | 333° |
| 2026-05-07 04:34 | 1.36297 | 103.99447 | 27 ft | 4 kts | 355° |
| 2026-05-07 04:34 | 1.36277 | 103.99443 | 27 ft | 1 kts | 53° |
| 2026-05-07 04:34 | 1.36276 | 103.99443 | 27 ft | 0 kts | 53° |
| 2026-05-07 04:40 | 1.36301 | 103.99477 | 24 ft | 12 kts | 53° |
| 2026-05-07 04:40 | 1.36347 | 103.99537 | 24 ft | 10 kts | 53° |
| 2026-05-07 04:40 | 1.36335 | 103.99572 | 24 ft | 5 kts | 142° |
| 2026-05-07 04:41 | 1.36307 | 103.99603 | 24 ft | 10 kts | 120° |
| 2026-05-07 04:41 | 1.36270 | 103.99691 | 24 ft | 15 kts | 112° |
| 2026-05-07 04:41 | 1.36228 | 103.99795 | 24 ft | 17 kts | 112° |
| 2026-05-07 04:41 | 1.36180 | 103.99888 | 24 ft | 9 kts | 158° |
| 2026-05-07 04:42 | 1.36133 | 103.99869 | 26 ft | 11 kts | 205° |
| 2026-05-07 04:42 | 1.35851 | 103.99744 | 25 ft | 83 kts | 202° |
| 2026-05-07 04:42 | 1.35136 | 103.99448 | 25 ft | 136 kts | 201° |
| 2026-05-07 04:42 | 1.34127 | 103.99017 | 76 ft | 174 kts | 204° |
| 2026-05-07 04:43 | 1.33043 | 103.98537 | 783 ft | 169 kts | 203° |
| 2026-05-07 04:43 | 1.31968 | 103.98062 | 1437 ft | 171 kts | 202° |
| 2026-05-07 04:43 | 1.30812 | 103.97578 | 1734 ft | 191 kts | 202° |
| 2026-05-07 04:43 | 1.29509 | 103.97040 | 1961 ft | 215 kts | 202° |
| 2026-05-07 04:44 | 1.28050 | 103.96435 | 2287 ft | 239 kts | 202° |
| 2026-05-07 04:44 | 1.26448 | 103.95766 | 2742 ft | 258 kts | 202° |
| 2026-05-07 04:44 | 1.24767 | 103.95061 | 3523 ft | 264 kts | 203° |
| 2026-05-07 04:44 | 1.23016 | 103.94551 | 4304 ft | 269 kts | 183° |
| 2026-05-07 04:45 | 1.21157 | 103.94795 | 5070 ft | 273 kts | 166° |
| 2026-05-07 04:45 | 1.19279 | 103.95268 | 5865 ft | 277 kts | 166° |
| 2026-05-07 04:45 | 1.17467 | 103.95727 | 6595 ft | 280 kts | 166° |
| 2026-05-07 04:45 | 1.15571 | 103.96203 | 7333 ft | 283 kts | 166° |
| 2026-05-07 04:46 | 1.13650 | 103.96683 | 8071 ft | 286 kts | 165° |
| 2026-05-07 04:46 | 1.11786 | 103.97156 | 8780 ft | 289 kts | 162° |
| 2026-05-07 04:46 | 1.09970 | 103.98019 | 9500 ft | 292 kts | 144° |
| 2026-05-07 04:46 | 1.08351 | 103.99256 | 10181 ft | 295 kts | 141° |
| 2026-05-07 04:47 | 1.06669 | 104.00560 | 10405 ft | 317 kts | 141° |
| 2026-05-07 04:47 | 1.04867 | 104.01966 | 10575 ft | 338 kts | 140° |
| 2026-05-07 04:47 | 1.03202 | 104.03663 | 11036 ft | 346 kts | 127° |
| 2026-05-07 04:47 | 1.01914 | 104.05704 | 11632 ft | 350 kts | 115° |
| 2026-05-07 04:48 | 1.00949 | 104.07946 | 12266 ft | 352 kts | 112° |
| 2026-05-07 04:48 | 0.99995 | 104.10207 | 12885 ft | 355 kts | 112° |
| 2026-05-07 04:48 | 0.99029 | 104.12493 | 13509 ft | 358 kts | 112° |
| 2026-05-07 04:48 | 0.98059 | 104.14789 | 14068 ft | 360 kts | 112° |
| 2026-05-07 04:49 | 0.97082 | 104.17106 | 14586 ft | 363 kts | 112° |
| 2026-05-07 04:49 | 0.96100 | 104.19437 | 15111 ft | 366 kts | 112° |
| 2026-05-07 04:49 | 0.95107 | 104.21791 | 15630 ft | 369 kts | 113° |
| 2026-05-07 04:49 | 0.93883 | 104.24049 | 16119 ft | 373 kts | 121° |
| 2026-05-07 04:50 | 0.92509 | 104.26259 | 16632 ft | 375 kts | 121° |
| 2026-05-07 04:50 | 0.91205 | 104.28349 | 17111 ft | 378 kts | 121° |
| 2026-05-07 04:50 | 0.89809 | 104.30582 | 17598 ft | 381 kts | 121° |
| 2026-05-07 04:50 | 0.88400 | 104.32834 | 18081 ft | 384 kts | 121° |
| 2026-05-07 04:51 | 0.86983 | 104.35104 | 18489 ft | 386 kts | 121° |
| 2026-05-07 04:51 | 0.85559 | 104.37387 | 18906 ft | 389 kts | 121° |
| 2026-05-07 04:51 | 0.84126 | 104.39688 | 19311 ft | 391 kts | 121° |
| 2026-05-07 04:51 | 0.82685 | 104.41998 | 19717 ft | 393 kts | 121° |
| 2026-05-07 04:52 | 0.81201 | 104.44311 | 20106 ft | 396 kts | 123° |
| 2026-05-07 04:52 | 0.79636 | 104.46583 | 20494 ft | 398 kts | 124° |
| 2026-05-07 04:52 | 0.78014 | 104.48840 | 20875 ft | 401 kts | 125° |
| 2026-05-07 04:52 | 0.76368 | 104.51092 | 21255 ft | 403 kts | 125° |
| 2026-05-07 04:53 | 0.74720 | 104.53325 | 21630 ft | 406 kts | 128° |
| 2026-05-07 04:53 | 0.72725 | 104.55383 | 21992 ft | 410 kts | 139° |
| 2026-05-07 04:53 | 0.70374 | 104.57018 | 22352 ft | 414 kts | 149° |
| 2026-05-07 04:53 | 0.67756 | 104.58163 | 22696 ft | 419 kts | 161° |
| 2026-05-07 04:54 | 0.64917 | 104.59004 | 23044 ft | 422 kts | 162° |
| 2026-05-07 04:54 | 0.62131 | 104.59824 | 23385 ft | 424 kts | 161° |
| 2026-05-07 04:54 | 0.59291 | 104.60664 | 23671 ft | 427 kts | 161° |
| 2026-05-07 04:54 | 0.56439 | 104.61510 | 23959 ft | 429 kts | 161° |
| 2026-05-07 04:55 | 0.53572 | 104.62361 | 24253 ft | 430 kts | 161° |
| 2026-05-07 04:55 | 0.50696 | 104.63214 | 24542 ft | 432 kts | 161° |
| 2026-05-07 04:55 | 0.47807 | 104.64073 | 24835 ft | 434 kts | 161° |
| 2026-05-07 04:55 | 0.44911 | 104.64936 | 25113 ft | 436 kts | 161° |
| 2026-05-07 04:56 | 0.42001 | 104.65803 | 25412 ft | 437 kts | 161° |
| 2026-05-07 04:56 | 0.39078 | 104.66674 | 25695 ft | 439 kts | 161° |
| 2026-05-07 04:56 | 0.36142 | 104.67545 | 25976 ft | 441 kts | 162° |
| 2026-05-07 04:56 | 0.33198 | 104.68413 | 26254 ft | 442 kts | 162° |
| 2026-05-07 04:57 | 0.30246 | 104.69284 | 26521 ft | 444 kts | 162° |
| 2026-05-07 04:57 | 0.27275 | 104.70159 | 26779 ft | 446 kts | 162° |
| 2026-05-07 04:57 | 0.24296 | 104.71039 | 27044 ft | 447 kts | 162° |
| 2026-05-07 04:57 | 0.21304 | 104.71924 | 27310 ft | 449 kts | 162° |
| 2026-05-07 04:58 | 0.18306 | 104.72811 | 27576 ft | 451 kts | 162° |
| 2026-05-07 04:58 | 0.15293 | 104.73701 | 27836 ft | 452 kts | 162° |
| 2026-05-07 04:58 | 0.12272 | 104.74596 | 28081 ft | 454 kts | 162° |
| 2026-05-07 04:58 | 0.09240 | 104.75501 | 28346 ft | 456 kts | 162° |
| 2026-05-07 04:59 | 0.06198 | 104.76412 | 28594 ft | 457 kts | 162° |
| 2026-05-07 04:59 | 0.03140 | 104.77322 | 28839 ft | 459 kts | 162° |
| 2026-05-07 04:59 | 0.00074 | 104.78232 | 29073 ft | 460 kts | 162° |
| 2026-05-07 04:59 | -0.02997 | 104.79141 | 29306 ft | 462 kts | 162° |
| 2026-05-07 05:00 | -0.06090 | 104.80057 | 29521 ft | 464 kts | 162° |
| 2026-05-07 05:00 | -0.09187 | 104.80973 | 29744 ft | 465 kts | 162° |
| 2026-05-07 05:00 | -0.12259 | 104.81883 | 29958 ft | 467 kts | 162° |
| 2026-05-07 05:00 | -0.15373 | 104.82808 | 30153 ft | 469 kts | 162° |
| 2026-05-07 05:01 | -0.18500 | 104.83740 | 30403 ft | 470 kts | 162° |
| 2026-05-07 05:01 | -0.21641 | 104.84676 | 30584 ft | 472 kts | 162° |
| 2026-05-07 05:01 | -0.24786 | 104.85611 | 30843 ft | 471 kts | 162° |
| 2026-05-07 05:01 | -0.27861 | 104.86711 | 31103 ft | 469 kts | 154° |
| 2026-05-07 05:02 | -0.30721 | 104.88268 | 31360 ft | 467 kts | 145° |
| 2026-05-07 05:02 | -0.33410 | 104.90089 | 31606 ft | 467 kts | 144° |
| 2026-05-07 05:02 | -0.36097 | 104.91914 | 31848 ft | 467 kts | 144° |
| 2026-05-07 05:02 | -0.38784 | 104.93736 | 32104 ft | 467 kts | 144° |
| 2026-05-07 05:03 | -0.41475 | 104.95560 | 32358 ft | 467 kts | 145° |
| 2026-05-07 05:03 | -0.44162 | 104.97377 | 32619 ft | 467 kts | 145° |
| 2026-05-07 05:03 | -0.46850 | 104.99195 | 32877 ft | 466 kts | 145° |
| 2026-05-07 05:03 | -0.49532 | 105.01012 | 33136 ft | 466 kts | 145° |
| 2026-05-07 05:04 | -0.52219 | 105.02831 | 33410 ft | 466 kts | 145° |
| 2026-05-07 05:04 | -0.54900 | 105.04645 | 33688 ft | 466 kts | 145° |
| 2026-05-07 05:04 | -0.57580 | 105.06459 | 33936 ft | 465 kts | 145° |
| 2026-05-07 05:04 | -0.60260 | 105.08273 | 34180 ft | 465 kts | 145° |
| 2026-05-07 05:05 | -0.62934 | 105.10080 | 34425 ft | 464 kts | 145° |
| 2026-05-07 05:05 | -0.65606 | 105.11885 | 34666 ft | 463 kts | 145° |
| 2026-05-07 05:05 | -0.68239 | 105.13665 | 34895 ft | 462 kts | 145° |
| 2026-05-07 05:05 | -0.70897 | 105.15464 | 35129 ft | 462 kts | 145° |
| 2026-05-07 05:06 | -0.73552 | 105.17259 | 35359 ft | 461 kts | 145° |
| 2026-05-07 05:06 | -0.76209 | 105.19055 | 35567 ft | 460 kts | 145° |
| 2026-05-07 05:06 | -0.78858 | 105.20846 | 35786 ft | 460 kts | 145° |
| 2026-05-07 05:06 | -0.81502 | 105.22633 | 35994 ft | 459 kts | 144° |
| 2026-05-07 05:07 | -0.84145 | 105.24424 | 36205 ft | 458 kts | 144° |
| 2026-05-07 05:07 | -0.86784 | 105.26212 | 36409 ft | 458 kts | 144° |
| 2026-05-07 05:07 | -0.89411 | 105.27995 | 36615 ft | 457 kts | 144° |
| 2026-05-07 05:07 | -0.92042 | 105.29779 | 36786 ft | 457 kts | 145° |
| 2026-05-07 05:08 | -0.97299 | 105.33337 | 36844 ft | 456 kts | 145° |
| 2026-05-07 05:08 | -1.02548 | 105.36890 | 36843 ft | 455 kts | 145° |
| 2026-05-07 05:09 | -1.07794 | 105.40436 | 36847 ft | 455 kts | 145° |
| 2026-05-07 05:09 | -1.13038 | 105.43985 | 36838 ft | 455 kts | 145° |
| 2026-05-07 05:10 | -1.18244 | 105.47513 | 36841 ft | 455 kts | 145° |
| 2026-05-07 05:10 | -1.23483 | 105.51057 | 36856 ft | 455 kts | 145° |
| 2026-05-07 05:11 | -1.28728 | 105.54602 | 36858 ft | 455 kts | 145° |
| 2026-05-07 05:11 | -1.33979 | 105.58154 | 36845 ft | 455 kts | 145° |
| 2026-05-07 05:12 | -1.39217 | 105.61707 | 36849 ft | 455 kts | 145° |
| 2026-05-07 05:12 | -1.44461 | 105.65256 | 36855 ft | 455 kts | 145° |
| 2026-05-07 05:13 | -1.49702 | 105.68802 | 36851 ft | 455 kts | 145° |
| 2026-05-07 05:13 | -1.54947 | 105.72356 | 36849 ft | 455 kts | 145° |
| 2026-05-07 05:14 | -1.60189 | 105.75905 | 36845 ft | 456 kts | 145° |
| 2026-05-07 05:14 | -1.65446 | 105.79463 | 36851 ft | 456 kts | 145° |
| 2026-05-07 05:15 | -1.70655 | 105.82994 | 36855 ft | 456 kts | 145° |
| 2026-05-07 05:15 | -1.75903 | 105.86552 | 36854 ft | 456 kts | 145° |
| 2026-05-07 05:16 | -1.81158 | 105.90106 | 36858 ft | 456 kts | 145° |
| 2026-05-07 05:16 | -1.85093 | 105.92772 | 36859 ft | 456 kts | 145° |
| 2026-05-07 05:17 | -1.90352 | 105.96326 | 36859 ft | 455 kts | 145° |
| 2026-05-07 05:17 | -1.95590 | 105.99874 | 36857 ft | 455 kts | 145° |
| 2026-05-07 05:18 | -2.00832 | 106.03435 | 36859 ft | 455 kts | 144° |
| 2026-05-07 05:18 | -2.06072 | 106.06993 | 36859 ft | 455 kts | 144° |
| 2026-05-07 05:19 | -2.11313 | 106.10549 | 36858 ft | 455 kts | 145° |
| 2026-05-07 05:19 | -2.16766 | 106.13748 | 36855 ft | 456 kts | 158° |
| 2026-05-07 05:20 | -2.22926 | 106.15268 | 36840 ft | 457 kts | 169° |
| 2026-05-07 05:20 | -2.29162 | 106.16324 | 36843 ft | 458 kts | 169° |
| 2026-05-07 05:21 | -2.38583 | 106.17941 | 36849 ft | 458 kts | 169° |
| 2026-05-07 05:22 | -2.44863 | 106.19017 | 36847 ft | 458 kts | 169° |
| 2026-05-07 05:22 | -2.51147 | 106.20099 | 36847 ft | 458 kts | 169° |
| 2026-05-07 05:23 | -2.57435 | 106.21170 | 36843 ft | 459 kts | 169° |
| 2026-05-07 05:23 | -2.63731 | 106.22248 | 36842 ft | 459 kts | 169° |
| 2026-05-07 05:24 | -2.70029 | 106.23332 | 36856 ft | 459 kts | 169° |
| 2026-05-07 05:24 | -2.76326 | 106.24409 | 36855 ft | 459 kts | 169° |
| 2026-05-07 05:25 | -2.82629 | 106.25482 | 36853 ft | 459 kts | 169° |
| 2026-05-07 05:25 | -2.88926 | 106.26559 | 36851 ft | 460 kts | 169° |
| 2026-05-07 05:26 | -2.95240 | 106.27636 | 36862 ft | 460 kts | 169° |
| 2026-05-07 05:26 | -3.01503 | 106.28705 | 36861 ft | 460 kts | 169° |
| 2026-05-07 05:27 | -3.07808 | 106.29792 | 36864 ft | 460 kts | 169° |
| 2026-05-07 05:27 | -3.14109 | 106.30871 | 36868 ft | 460 kts | 169° |
| 2026-05-07 05:28 | -3.20421 | 106.31953 | 36872 ft | 460 kts | 169° |
| 2026-05-07 05:28 | -3.26722 | 106.33036 | 36872 ft | 460 kts | 169° |
| 2026-05-07 05:29 | -3.33028 | 106.34119 | 36873 ft | 459 kts | 169° |
| 2026-05-07 05:29 | -3.39324 | 106.35192 | 36872 ft | 459 kts | 169° |
| 2026-05-07 05:30 | -3.44561 | 106.36084 | 36869 ft | 459 kts | 169° |
| 2026-05-07 05:30 | -3.51914 | 106.37351 | 36867 ft | 459 kts | 169° |
| 2026-05-07 05:31 | -3.57143 | 106.38249 | 36863 ft | 459 kts | 170° |
| 2026-05-07 05:31 | -3.63442 | 106.39323 | 36869 ft | 459 kts | 169° |
| 2026-05-07 05:32 | -3.69731 | 106.40467 | 36859 ft | 460 kts | 168° |
| 2026-05-07 05:32 | -3.76016 | 106.41677 | 36864 ft | 461 kts | 168° |
| 2026-05-07 05:33 | -3.82277 | 106.42876 | 36865 ft | 461 kts | 169° |
| 2026-05-07 05:33 | -3.88595 | 106.44056 | 36864 ft | 462 kts | 169° |
| 2026-05-07 05:34 | -3.94914 | 106.45228 | 36868 ft | 462 kts | 169° |
| 2026-05-07 05:34 | -4.01227 | 106.46406 | 36860 ft | 462 kts | 169° |
| 2026-05-07 05:35 | -4.07544 | 106.47587 | 36854 ft | 462 kts | 169° |
| 2026-05-07 05:35 | -4.13859 | 106.48772 | 36849 ft | 462 kts | 169° |
| 2026-05-07 05:36 | -4.18839 | 106.49706 | 36664 ft | 463 kts | 169° |
| 2026-05-07 05:36 | -4.22006 | 106.50300 | 36418 ft | 463 kts | 169° |
| 2026-05-07 05:36 | -4.25177 | 106.50896 | 36170 ft | 464 kts | 169° |
| 2026-05-07 05:36 | -4.28354 | 106.51493 | 35934 ft | 465 kts | 169° |
| 2026-05-07 05:37 | -4.31493 | 106.52081 | 35702 ft | 465 kts | 169° |
| 2026-05-07 05:37 | -4.34715 | 106.52683 | 35462 ft | 466 kts | 169° |
| 2026-05-07 05:37 | -4.37907 | 106.53282 | 35195 ft | 467 kts | 169° |
| 2026-05-07 05:37 | -4.41078 | 106.53877 | 34343 ft | 473 kts | 169° |
| 2026-05-07 05:38 | -4.44338 | 106.54486 | 33345 ft | 481 kts | 169° |
| 2026-05-07 05:38 | -4.47639 | 106.55100 | 32620 ft | 480 kts | 168° |
| 2026-05-07 05:38 | -4.50906 | 106.55709 | 32047 ft | 476 kts | 168° |
| 2026-05-07 05:38 | -4.54146 | 106.56316 | 31421 ft | 473 kts | 168° |
| 2026-05-07 05:39 | -4.57376 | 106.56922 | 30817 ft | 470 kts | 168° |
| 2026-05-07 05:39 | -4.60575 | 106.57524 | 30212 ft | 467 kts | 168° |
| 2026-05-07 05:39 | -4.63772 | 106.58124 | 29559 ft | 464 kts | 167° |
| 2026-05-07 05:39 | -4.66924 | 106.58716 | 28953 ft | 455 kts | 167° |
| 2026-05-07 05:40 | -4.69985 | 106.59290 | 28394 ft | 439 kts | 168° |
| 2026-05-07 05:40 | -4.72949 | 106.59846 | 27855 ft | 430 kts | 167° |
| 2026-05-07 05:40 | -4.75879 | 106.60395 | 27305 ft | 427 kts | 167° |
| 2026-05-07 05:40 | -4.78795 | 106.60943 | 26774 ft | 424 kts | 167° |
| 2026-05-07 05:41 | -4.81688 | 106.61488 | 26259 ft | 421 kts | 167° |
| 2026-05-07 05:41 | -4.84566 | 106.61996 | 25746 ft | 419 kts | 171° |
| 2026-05-07 05:41 | -4.87460 | 106.62094 | 25258 ft | 418 kts | 182° |
| 2026-05-07 05:41 | -4.90341 | 106.61728 | 24778 ft | 415 kts | 187° |
| 2026-05-07 05:42 | -4.93189 | 106.61299 | 24291 ft | 413 kts | 186° |
| 2026-05-07 05:42 | -4.96019 | 106.60881 | 23807 ft | 410 kts | 186° |
| 2026-05-07 05:42 | -4.98839 | 106.60469 | 23312 ft | 408 kts | 186° |
| 2026-05-07 05:42 | -5.01636 | 106.60063 | 22787 ft | 405 kts | 186° |
| 2026-05-07 05:43 | -5.04408 | 106.59663 | 22313 ft | 400 kts | 186° |
| 2026-05-07 05:43 | -5.07152 | 106.59266 | 21827 ft | 397 kts | 186° |
| 2026-05-07 05:43 | -5.09881 | 106.58872 | 21360 ft | 394 kts | 186° |
| 2026-05-07 05:43 | -5.12553 | 106.58484 | 20884 ft | 392 kts | 186° |
| 2026-05-07 05:44 | -5.15282 | 106.58086 | 20393 ft | 390 kts | 186° |
| 2026-05-07 05:44 | -5.17922 | 106.57697 | 19913 ft | 389 kts | 186° |
| 2026-05-07 05:44 | -5.20596 | 106.57302 | 19422 ft | 388 kts | 186° |
| 2026-05-07 05:44 | -5.23216 | 106.56918 | 18940 ft | 387 kts | 186° |
| 2026-05-07 05:45 | -5.25875 | 106.56533 | 18455 ft | 386 kts | 186° |
| 2026-05-07 05:45 | -5.28536 | 106.56148 | 17935 ft | 386 kts | 186° |
| 2026-05-07 05:45 | -5.31187 | 106.55762 | 17436 ft | 384 kts | 186° |
| 2026-05-07 05:45 | -5.33827 | 106.55376 | 16952 ft | 381 kts | 187° |
| 2026-05-07 05:46 | -5.36446 | 106.54992 | 16476 ft | 379 kts | 187° |
| 2026-05-07 05:46 | -5.39049 | 106.54610 | 16013 ft | 377 kts | 186° |
| 2026-05-07 05:46 | -5.41639 | 106.54231 | 15543 ft | 376 kts | 186° |
| 2026-05-07 05:46 | -5.44223 | 106.53854 | 15076 ft | 374 kts | 186° |
| 2026-05-07 05:47 | -5.46793 | 106.53481 | 14612 ft | 373 kts | 186° |
| 2026-05-07 05:47 | -5.49355 | 106.53106 | 14158 ft | 371 kts | 186° |
| 2026-05-07 05:47 | -5.51867 | 106.52737 | 13683 ft | 358 kts | 186° |
| 2026-05-07 05:47 | -5.54284 | 106.52380 | 13203 ft | 345 kts | 186° |
| 2026-05-07 05:48 | -5.56623 | 106.52036 | 12753 ft | 333 kts | 186° |
| 2026-05-07 05:48 | -5.58899 | 106.51704 | 12327 ft | 331 kts | 186° |
| 2026-05-07 05:48 | -5.61182 | 106.51373 | 11880 ft | 331 kts | 186° |
| 2026-05-07 05:48 | -5.63461 | 106.51042 | 11446 ft | 331 kts | 186° |
| 2026-05-07 05:49 | -5.65741 | 106.50709 | 11083 ft | 329 kts | 186° |
| 2026-05-07 05:49 | -5.67957 | 106.50383 | 10711 ft | 327 kts | 186° |
| 2026-05-07 05:49 | -5.70214 | 106.50052 | 10289 ft | 327 kts | 186° |
| 2026-05-07 05:49 | -5.72426 | 106.49726 | 10145 ft | 316 kts | 186° |
| 2026-05-07 05:50 | -5.74547 | 106.49414 | 9923 ft | 304 kts | 186° |
| 2026-05-07 05:50 | -5.76618 | 106.49108 | 9681 ft | 299 kts | 186° |
| 2026-05-07 05:50 | -5.78686 | 106.48806 | 9219 ft | 301 kts | 186° |
| 2026-05-07 05:50 | -5.80031 | 106.48610 | 8956 ft | 298 kts | 186° |
| 2026-05-07 05:51 | -5.81679 | 106.48375 | 8605 ft | 298 kts | 186° |
| 2026-05-07 05:51 | -5.83719 | 106.48080 | 8285 ft | 295 kts | 186° |
| 2026-05-07 05:51 | -5.85745 | 106.47785 | 7903 ft | 294 kts | 186° |
| 2026-05-07 05:51 | -5.87759 | 106.47491 | 7538 ft | 292 kts | 186° |
| 2026-05-07 05:52 | -5.89761 | 106.47197 | 7172 ft | 290 kts | 186° |
| 2026-05-07 05:52 | -5.91753 | 106.46903 | 6812 ft | 288 kts | 186° |
| 2026-05-07 05:52 | -5.93727 | 106.46611 | 6356 ft | 284 kts | 186° |
| 2026-05-07 05:52 | -5.95675 | 106.46324 | 5697 ft | 282 kts | 186° |
| 2026-05-07 05:53 | -5.97612 | 106.46039 | 5045 ft | 280 kts | 186° |
| 2026-05-07 05:53 | -5.99522 | 106.45758 | 4415 ft | 277 kts | 186° |
| 2026-05-07 05:53 | -6.01423 | 106.45481 | 3765 ft | 275 kts | 186° |
| 2026-05-07 05:53 | -6.03304 | 106.45205 | 3234 ft | 269 kts | 186° |
| 2026-05-07 05:54 | -6.05105 | 106.44942 | 2768 ft | 261 kts | 186° |
| 2026-05-07 05:54 | -6.06828 | 106.44689 | 2576 ft | 243 kts | 186° |
| 2026-05-07 05:54 | -6.08472 | 106.44447 | 2507 ft | 233 kts | 185° |
| 2026-05-07 05:54 | -6.10043 | 106.44219 | 2411 ft | 229 kts | 185° |
| 2026-05-07 05:55 | -6.11625 | 106.43990 | 2318 ft | 228 kts | 185° |
| 2026-05-07 05:55 | -6.13192 | 106.43763 | 2214 ft | 226 kts | 186° |
| 2026-05-07 05:55 | -6.14713 | 106.43540 | 2113 ft | 217 kts | 185° |
| 2026-05-07 05:55 | -6.16156 | 106.43659 | 2026 ft | 205 kts | 153° |
| 2026-05-07 05:56 | -6.17191 | 106.44550 | 1977 ft | 194 kts | 117° |
| 2026-05-07 05:56 | -6.17515 | 106.45853 | 1980 ft | 193 kts | 83° |
| 2026-05-07 05:56 | -6.17260 | 106.47186 | 1984 ft | 196 kts | 84° |
| 2026-05-07 05:56 | -6.17194 | 106.48548 | 1985 ft | 195 kts | 89° |
| 2026-05-07 05:57 | -6.17028 | 106.49895 | 1969 ft | 194 kts | 73° |
| 2026-05-07 05:57 | -6.16592 | 106.51185 | 1986 ft | 196 kts | 71° |
| 2026-05-07 05:57 | -6.16120 | 106.52449 | 1978 ft | 193 kts | 71° |
| 2026-05-07 05:57 | -6.15657 | 106.53654 | 1990 ft | 176 kts | 70° |
| 2026-05-07 05:58 | -6.15232 | 106.54739 | 1994 ft | 155 kts | 70° |
| 2026-05-07 05:58 | -6.14845 | 106.55723 | 1820 ft | 150 kts | 69° |
| 2026-05-07 05:58 | -6.14470 | 106.56675 | 1620 ft | 144 kts | 69° |
| 2026-05-07 05:58 | -6.14105 | 106.57597 | 1424 ft | 140 kts | 68° |
| 2026-05-07 05:59 | -6.13742 | 106.58514 | 1237 ft | 141 kts | 68° |
| 2026-05-07 05:59 | -6.13380 | 106.59426 | 1057 ft | 142 kts | 69° |
| 2026-05-07 05:59 | -6.13026 | 106.60318 | 893 ft | 142 kts | 70° |
| 2026-05-07 05:59 | -6.12657 | 106.61247 | 712 ft | 145 kts | 70° |
| 2026-05-07 06:00 | -6.12272 | 106.62204 | 531 ft | 149 kts | 68° |
| 2026-05-07 06:00 | -6.11945 | 106.63005 | 379 ft | 152 kts | 69° |
| 2026-05-07 06:00 | -6.11560 | 106.63983 | 198 ft | 153 kts | 72° |
| 2026-05-07 06:00 | -6.11168 | 106.64968 | 51 ft | 147 kts | 73° |
| 2026-05-07 06:01 | -6.10848 | 106.65806 | 36 ft | 105 kts | 68° |
| 2026-05-07 06:01 | -6.10646 | 106.66297 | 33 ft | 35 kts | 68° |
| 2026-05-07 06:01 | -6.10623 | 106.66497 | 33 ft | 29 kts | 90° |
| 2026-05-07 06:01 | -6.10662 | 106.66640 | 36 ft | 18 kts | 131° |
| 2026-05-07 06:02 | -6.10762 | 106.66672 | 37 ft | 10 kts | 173° |
| 2026-05-07 06:02 | -6.10811 | 106.66623 | 37 ft | 12 kts | 249° |
| 2026-05-07 06:02 | -6.10842 | 106.66542 | 37 ft | 13 kts | 249° |
| 2026-05-07 06:02 | -6.10878 | 106.66450 | 37 ft | 15 kts | 249° |
| 2026-05-07 06:03 | -6.10918 | 106.66346 | 37 ft | 17 kts | 248° |
| 2026-05-07 06:03 | -6.10963 | 106.66233 | 38 ft | 18 kts | 248° |
| 2026-05-07 06:03 | -6.11013 | 106.66113 | 36 ft | 19 kts | 248° |
| 2026-05-07 06:03 | -6.11077 | 106.65997 | 38 ft | 17 kts | 200° |
| 2026-05-07 06:04 | -6.11183 | 106.66028 | 38 ft | 17 kts | 162° |
| 2026-05-07 06:04 | -6.11248 | 106.66124 | 37 ft | 18 kts | 101° |
| 2026-05-07 06:04 | -6.11267 | 106.66237 | 37 ft | 15 kts | 111° |
| 2026-05-07 06:04 | -6.11350 | 106.66288 | 38 ft | 15 kts | 160° |
| 2026-05-07 06:05 | -6.11455 | 106.66327 | 38 ft | 17 kts | 160° |
| 2026-05-07 06:05 | -6.11564 | 106.66373 | 38 ft | 17 kts | 158° |
| 2026-05-07 06:05 | -6.11641 | 106.66448 | 38 ft | 17 kts | 84° |
| 2026-05-07 06:05 | -6.11599 | 106.66552 | 38 ft | 16 kts | 66° |
| 2026-05-07 06:06 | -6.11564 | 106.66643 | 37 ft | 15 kts | 68° |
| 2026-05-07 06:06 | -6.11528 | 106.66735 | 38 ft | 14 kts | 68° |
| 2026-05-07 06:06 | -6.11494 | 106.66820 | 35 ft | 12 kts | 70° |
| 2026-05-07 06:06 | -6.11515 | 106.66867 | 38 ft | 6 kts | 143° |
| 2026-05-07 06:07 | -6.11549 | 106.66881 | 38 ft | 5 kts | 158° |
| 2026-05-07 06:07 | -6.11578 | 106.66893 | 36 ft | 4 kts | 158° |
| 2026-05-07 06:07 | -6.11586 | 106.66896 | 38 ft | 0 kts | 157° |